Time;durP1;ratioP1;P1;durP2;ratioP2;P2;SDS_P1;SDS_P2;PMS_P1;PMS_P2;Temp;Humidity;BMP_temperature;BMP_pressure;BME280_temperature;BME280_humidity;BME280_pressure;Samples;Min_cycle;Max_cycle;Signal;HPM_P1;HPM_P2
2023/12/23 00:02:14;;;;;;;5.30;1.23;;;12.10;68.00;;;;;;5036389;28;20040;-81
2023/12/23 00:04:40;;;;;;;8.07;1.58;;;12.10;68.00;;;;;;5031118;28;20048;-81
2023/12/23 00:07:07;;;;;;;5.40;1.77;;;12.10;68.00;;;;;;5031148;28;20102;-81
2023/12/23 00:09:33;;;;;;;6.90;1.95;;;12.10;68.10;;;;;;5011395;28;20037;-82
2023/12/23 00:12:01;;;;;;;6.70;1.73;;;12.10;68.20;;;;;;5015980;28;20033;-81
2023/12/23 00:14:27;;;;;;;9.73;2.05;;;12.10;68.20;;;;;;5032617;28;21877;-80
2023/12/23 00:16:53;;;;;;;5.80;1.63;;;12.10;68.20;;;;;;5026593;28;20385;-81
2023/12/23 00:19:19;;;;;;;6.07;1.92;;;12.10;68.30;;;;;;5026165;28;20125;-81
2023/12/23 00:21:45;;;;;;;5.28;1.50;;;12.10;68.30;;;;;;5021912;28;20053;-81
2023/12/23 00:24:11;;;;;;;5.85;1.55;;;12.10;68.30;;;;;;5027616;28;20041;-79
2023/12/23 00:26:39;;;;;;;5.97;1.70;;;12.10;68.30;;;;;;5011704;28;20170;-80
2023/12/23 00:29:05;;;;;;;5.93;1.65;;;12.10;68.30;;;;;;5033032;28;20041;-80
2023/12/23 00:31:31;;;;;;;6.78;3.40;;;12.20;68.50;;;;;;5032533;28;20036;-81
2023/12/23 00:33:57;;;;;;;5.43;1.30;;;12.10;68.40;;;;;;5033446;28;20332;-82
2023/12/23 00:36:22;;;;;;;5.25;1.30;;;12.10;68.90;;;;;;5030931;28;20136;-82
2023/12/23 00:38:49;;;;;;;4.20;1.60;;;12.20;68.60;;;;;;5029354;28;20041;-80
2023/12/23 00:41:15;;;;;;;5.65;1.23;;;12.20;68.60;;;;;;5048261;28;20025;-81
2023/12/23 00:43:42;;;;;;;4.35;1.10;;;12.20;68.60;;;;;;5041172;28;20091;-81
2023/12/23 00:46:09;;;;;;;7.00;1.48;;;12.20;68.60;;;;;;5031211;28;20120;-80
2023/12/23 00:48:37;;;;;;;5.47;1.33;;;12.20;68.60;;;;;;5026141;28;20857;-82
2023/12/23 00:51:05;;;;;;;5.35;1.40;;;12.20;68.60;;;;;;5023633;28;20527;-82
2023/12/23 00:53:31;;;;;;;5.90;1.42;;;12.20;68.60;;;;;;5032687;28;20592;-82
2023/12/23 00:55:58;;;;;;;4.05;1.23;;;12.20;68.70;;;;;;5021179;28;20586;-82
2023/12/23 00:58:23;;;;;;;5.60;1.35;;;12.20;68.60;;;;;;5038517;28;20232;-81
2023/12/23 01:00:50;;;;;;;7.32;1.60;;;12.20;68.60;;;;;;5044578;28;20514;-80
2023/12/23 01:03:15;;;;;;;5.65;1.45;;;12.20;68.60;;;;;;5041366;28;20032;-80
2023/12/23 01:05:42;;;;;;;4.32;1.67;;;12.20;68.60;;;;;;5034484;28;20426;-80
2023/12/23 01:08:08;;;;;;;7.75;1.98;;;12.20;68.60;;;;;;5043563;28;20028;-81
2023/12/23 01:10:34;;;;;;;4.65;1.67;;;12.20;68.60;;;;;;5036204;28;20403;-81
2023/12/23 01:13:01;;;;;;;5.65;1.25;;;12.20;68.60;;;;;;5041694;28;20501;-81
2023/12/23 01:15:26;;;;;;;4.78;1.83;;;12.20;68.60;;;;;;5041549;28;20037;-81
2023/12/23 01:17:52;;;;;;;5.75;1.33;;;12.20;68.60;;;;;;5032142;28;20021;-81
2023/12/23 01:20:19;;;;;;;6.95;1.80;;;12.20;68.70;;;;;;5029451;28;20404;-81
2023/12/23 01:22:45;;;;;;;2.97;1.20;;;12.20;68.70;;;;;;5023154;28;20029;-81
2023/12/23 01:25:12;;;;;;;5.80;1.58;;;12.20;68.70;;;;;;5027837;28;20041;-82
2023/12/23 01:27:38;;;;;;;3.55;1.17;;;12.20;68.70;;;;;;5033208;28;20021;-83
2023/12/23 01:30:05;;;;;;;6.22;1.63;;;12.20;68.80;;;;;;5037441;28;20036;-81
2023/12/23 01:32:32;;;;;;;9.25;2.85;;;12.20;68.80;;;;;;5033491;28;20029;-82
2023/12/23 01:34:58;;;;;;;6.68;2.00;;;12.20;68.80;;;;;;5036442;28;20037;-81
2023/12/23 01:37:23;;;;;;;4.22;1.55;;;12.20;68.80;;;;;;5049908;28;20039;-82
2023/12/23 01:39:49;;;;;;;4.65;1.63;;;12.30;69.00;;;;;;5039446;28;20040;-82
2023/12/23 01:42:15;;;;;;;7.05;1.55;;;12.20;68.80;;;;;;5023544;28;20167;-81
2023/12/23 01:44:42;;;;;;;6.38;1.95;;;12.20;68.80;;;;;;5043822;28;20443;-82
2023/12/23 01:47:08;;;;;;;7.85;1.85;;;12.30;69.00;;;;;;5034492;28;20072;-81
2023/12/23 01:49:35;;;;;;;5.72;1.50;;;12.30;69.00;;;;;;5036194;28;20052;-82
2023/12/23 01:52:01;;;;;;;4.65;1.80;;;12.30;69.00;;;;;;5034093;28;20021;-80
2023/12/23 01:54:29;;;;;;;3.50;2.10;;;12.20;68.90;;;;;;5021334;28;20397;-82
2023/12/23 01:56:58;;;;;;;5.78;1.60;;;12.30;69.20;;;;;;5035621;28;20476;-81
2023/12/23 01:59:25;;;;;;;6.75;1.60;;;12.30;69.10;;;;;;5031795;28;20048;-81
2023/12/23 02:01:52;;;;;;;10.10;2.25;;;12.30;69.10;;;;;;5040957;28;20037;-80
2023/12/23 02:04:18;;;;;;;4.47;1.65;;;12.30;69.10;;;;;;5042301;28;20496;-81
2023/12/23 02:06:44;;;;;;;6.57;1.60;;;12.30;69.10;;;;;;5029435;28;20505;-81
2023/12/23 02:09:11;;;;;;;5.45;1.55;;;12.30;69.60;;;;;;5021948;28;20045;-81
2023/12/23 02:11:47;;;;;;;5.38;1.50;;;12.30;69.10;;;;;;5034296;28;20033;-81
2023/12/23 02:14:32;;;;;;;7.93;1.73;;;12.30;69.10;;;;;;5050214;28;20033;-82
2023/12/23 02:17:00;;;;;;;6.47;1.63;;;12.30;69.20;;;;;;5049200;28;20163;-79
2023/12/23 02:19:25;;;;;;;6.82;2.20;;;12.30;69.20;;;;;;5036590;28;20033;-80
2023/12/23 02:21:51;;;;;;;6.70;1.73;;;12.30;69.20;;;;;;5041379;28;20484;-80
2023/12/23 02:24:17;;;;;;;5.75;1.70;;;12.20;69.10;;;;;;5033653;28;20033;-83
2023/12/23 02:26:50;;;;;;;9.48;1.92;;;12.20;69.20;;;;;;5018171;28;20570;-80
2023/12/23 02:29:20;;;;;;;7.60;1.92;;;12.20;69.20;;;;;;5039435;28;20033;-81
2023/12/23 02:31:47;;;;;;;8.07;2.80;;;12.20;69.20;;;;;;5037261;28;20112;-80
2023/12/23 02:34:17;;;;;;;6.90;1.42;;;12.20;69.30;;;;;;5037255;28;20608;-81
2023/12/23 02:36:42;;;;;;;5.50;1.42;;;12.20;69.30;;;;;;5026522;28;20079;-81
2023/12/23 02:39:08;;;;;;;5.97;1.42;;;12.20;69.30;;;;;;5037286;28;20491;-82
2023/12/23 02:41:34;;;;;;;3.08;1.48;;;12.30;69.50;;;;;;5012839;28;20033;-82
2023/12/23 02:44:01;;;;;;;5.82;1.70;;;12.30;69.50;;;;;;5031612;28;20139;-82
2023/12/23 02:46:27;;;;;;;10.43;1.75;;;12.20;69.40;;;;;;5012293;28;20053;-82
2023/12/23 02:48:53;;;;;;;5.45;1.58;;;12.30;69.60;;;;;;5038758;28;20152;-82
2023/12/23 02:51:20;;;;;;;3.88;1.13;;;12.20;69.40;;;;;;5028232;28;20029;-81
2023/12/23 02:53:46;;;;;;;4.53;1.23;;;12.20;69.40;;;;;;5026765;28;20107;-81
2023/12/23 02:56:11;;;;;;;5.25;1.38;;;12.20;69.40;;;;;;5035719;28;20588;-82
2023/12/23 02:58:38;;;;;;;8.48;1.55;;;12.30;69.60;;;;;;5034234;28;20089;-82
2023/12/23 03:01:08;;;;;;;6.10;1.48;;;12.30;69.60;;;;;;5021962;28;20500;-82
2023/12/23 03:03:34;;;;;;;3.65;1.20;;;12.30;69.70;;;;;;5038173;28;20029;-82
2023/12/23 03:06:00;;;;;;;5.32;1.50;;;12.30;69.70;;;;;;5035604;28;20379;-81
2023/12/23 03:08:26;;;;;;;4.78;2.17;;;12.30;69.70;;;;;;5030840;28;20033;-82
2023/12/23 03:10:52;;;;;;;3.83;1.30;;;12.30;69.80;;;;;;5035791;28;20083;-82
2023/12/23 03:13:18;;;;;;;7.47;1.63;;;12.30;69.80;;;;;;5049592;28;20026;-82
2023/12/23 03:15:46;;;;;;;4.25;1.38;;;12.30;69.80;;;;;;5048923;28;20030;-83
2023/12/23 03:18:13;;;;;;;4.15;0.85;;;12.30;69.80;;;;;;5050957;28;20099;-82
2023/12/23 03:20:39;;;;;;;7.95;1.65;;;12.30;69.90;;;;;;5070448;28;20025;-82
2023/12/23 03:23:05;;;;;;;4.15;1.20;;;12.30;69.90;;;;;;5052693;28;20088;-82
2023/12/23 03:25:31;;;;;;;4.88;1.30;;;12.30;69.90;;;;;;5057377;28;20040;-83
2023/12/23 03:27:57;;;;;;;7.18;1.60;;;12.40;70.10;;;;;;5047129;28;20042;-82
2023/12/23 03:30:23;;;;;;;6.13;1.60;;;12.30;70.00;;;;;;5045341;28;20041;-81
2023/12/23 03:32:50;;;;;;;7.85;1.65;;;12.30;70.00;;;;;;5040895;28;20614;-82
2023/12/23 03:35:16;;;;;;;4.60;1.30;;;12.30;70.00;;;;;;5033920;28;21431;-80
2023/12/23 03:37:44;;;;;;;6.45;1.85;;;12.40;70.20;;;;;;5035364;28;20025;-82
2023/12/23 03:40:11;;;;;;;8.63;1.55;;;12.30;70.00;;;;;;5033546;28;20098;-82
2023/12/23 03:42:38;;;;;;;4.20;1.02;;;12.40;70.20;;;;;;5041246;28;20032;-82
2023/12/23 03:45:05;;;;;;;6.80;1.40;;;12.30;70.10;;;;;;5054215;28;20376;-82
2023/12/23 03:47:31;;;;;;;7.40;1.48;;;12.40;70.30;;;;;;5038709;28;20646;-82
2023/12/23 03:49:57;;;;;;;7.22;1.50;;;12.40;70.30;;;;;;5030757;28;20366;-82
2023/12/23 03:52:23;;;;;;;6.65;1.45;;;12.40;70.30;;;;;;5035815;28;20036;-83
2023/12/23 03:54:50;;;;;;;6.00;1.25;;;12.40;70.30;;;;;;5017529;28;20060;-81
2023/12/23 03:57:16;;;;;;;8.85;1.60;;;12.30;70.20;;;;;;5035648;28;20515;-82
2023/12/23 03:59:44;;;;;;;6.88;1.80;;;12.30;70.10;;;;;;5055124;28;20146;-82
2023/12/23 04:02:10;;;;;;;6.30;1.85;;;12.40;70.40;;;;;;5041007;28;20033;-82
2023/12/23 04:04:39;;;;;;;5.38;1.33;;;12.40;70.40;;;;;;5043216;28;20059;-81
2023/12/23 04:07:05;;;;;;;4.80;1.55;;;12.40;70.40;;;;;;5037328;28;20021;-81
2023/12/23 04:09:32;;;;;;;5.70;1.20;;;12.40;70.40;;;;;;5053412;28;20403;-82
2023/12/23 04:11:58;;;;;;;6.72;1.75;;;12.40;70.50;;;;;;5057566;28;20081;-82
2023/12/23 04:14:24;;;;;;;5.05;1.75;;;12.40;70.50;;;;;;5035464;28;20442;-83
2023/12/23 04:16:51;;;;;;;6.70;1.58;;;12.40;70.40;;;;;;5050038;28;20566;-82
2023/12/23 04:19:17;;;;;;;7.38;1.77;;;12.40;70.50;;;;;;5045048;28;20094;-82
2023/12/23 04:21:43;;;;;;;8.05;1.50;;;12.40;70.50;;;;;;5041819;28;20064;-83
2023/12/23 04:24:10;;;;;;;6.85;2.30;;;12.40;70.50;;;;;;5021729;28;20036;-82
2023/12/23 04:26:36;;;;;;;5.13;1.33;;;12.40;70.50;;;;;;5030065;28;20029;-80
2023/12/23 04:29:02;;;;;;;6.53;1.55;;;12.40;70.50;;;;;;5039591;28;20036;-81
2023/12/23 04:31:28;;;;;;;10.27;1.77;;;12.40;70.50;;;;;;5054199;28;20120;-81
2023/12/23 04:33:54;;;;;;;7.22;1.92;;;12.40;70.50;;;;;;5038581;28;20123;-82
2023/12/23 04:36:23;;;;;;;6.63;1.65;;;12.50;70.70;;;;;;5051786;28;20059;-83
2023/12/23 04:38:49;;;;;;;9.25;1.42;;;12.50;70.70;;;;;;5039170;28;20043;-83
2023/12/23 04:41:16;;;;;;;4.32;1.40;;;12.50;70.80;;;;;;5037865;28;20045;-83
2023/12/23 04:43:42;;;;;;;8.65;1.90;;;12.50;70.80;;;;;;5038904;28;20032;-82
2023/12/23 04:46:08;;;;;;;6.65;2.33;;;12.40;70.60;;;;;;5037895;28;20068;-84
2023/12/23 04:48:35;;;;;;;4.68;1.33;;;12.50;70.80;;;;;;5038232;28;20419;-83
2023/12/23 04:51:01;;;;;;;5.93;1.40;;;12.50;70.80;;;;;;5042020;28;20087;-82
2023/12/23 04:53:28;;;;;;;6.53;1.55;;;12.50;70.80;;;;;;5034278;28;20044;-82
2023/12/23 04:55:55;;;;;;;9.43;2.63;;;12.40;70.70;;;;;;5035574;28;20135;-83
2023/12/23 04:58:21;;;;;;;9.82;2.22;;;12.50;70.90;;;;;;5021215;28;20029;-84
2023/12/23 05:00:47;;;;;;;11.05;3.65;;;12.50;70.90;;;;;;5041880;28;20052;-82
2023/12/23 05:03:13;;;;;;;6.70;1.45;;;12.40;70.70;;;;;;5022306;28;20136;-83
2023/12/23 05:05:41;;;;;;;8.82;1.63;;;12.50;70.90;;;;;;5043108;28;20060;-84
2023/12/23 05:08:07;;;;;;;4.93;1.35;;;12.50;70.90;;;;;;5047930;28;20115;-84
2023/12/23 05:10:33;;;;;;;7.05;1.75;;;12.50;70.90;;;;;;5034019;28;20040;-82
2023/12/23 05:12:59;;;;;;;9.05;1.50;;;12.40;70.80;;;;;;5037116;28;20048;-82
2023/12/23 05:15:25;;;;;;;6.78;1.48;;;12.50;70.90;;;;;;5029701;28;20029;-82
2023/12/23 05:17:51;;;;;;;6.53;1.60;;;12.50;71.00;;;;;;5015610;28;20480;-82
2023/12/23 05:20:17;;;;;;;7.32;1.52;;;12.40;70.80;;;;;;5039806;28;20079;-82
2023/12/23 05:22:44;;;;;;;8.88;2.08;;;12.40;70.80;;;;;;5024845;28;20087;-83
2023/12/23 05:25:11;;;;;;;10.00;1.83;;;12.40;70.80;;;;;;5022336;28;20033;-82
2023/12/23 05:27:37;;;;;;;7.57;1.88;;;12.40;70.80;;;;;;5054449;28;20079;-82
2023/12/23 05:30:04;;;;;;;6.47;1.65;;;12.40;70.90;;;;;;5039358;28;20040;-82
2023/12/23 05:32:30;;;;;;;10.52;2.15;;;12.40;70.90;;;;;;5040235;28;20115;-82
2023/12/23 05:34:57;;;;;;;6.15;1.70;;;12.40;70.90;;;;;;5035601;28;20508;-82
2023/12/23 05:37:26;;;;;;;7.72;1.50;;;12.40;71.40;;;;;;5046812;28;20488;-81
2023/12/23 05:39:52;;;;;;;6.35;1.50;;;12.40;70.90;;;;;;5041628;28;20029;-83
2023/12/23 05:42:18;;;;;;;7.13;1.38;;;12.40;70.90;;;;;;5021214;28;20037;-82
2023/12/23 05:44:44;;;;;;;6.88;1.58;;;12.40;70.90;;;;;;5035317;28;20036;-82
2023/12/23 05:47:12;;;;;;;6.28;1.75;;;12.40;70.90;;;;;;5025355;28;20053;-81
2023/12/23 05:49:38;;;;;;;4.68;1.58;;;12.40;70.90;;;;;;5038637;28;20033;-81
2023/12/23 05:52:05;;;;;;;8.35;2.00;;;12.40;70.90;;;;;;5038043;28;20345;-82
2023/12/23 05:54:31;;;;;;;4.75;2.25;;;12.40;70.90;;;;;;5049332;28;20041;-83
2023/12/23 05:56:57;;;;;;;6.13;2.10;;;12.40;70.90;;;;;;5038957;28;20550;-82
2023/12/23 05:59:25;;;;;;;6.53;1.88;;;12.40;70.90;;;;;;5005822;28;20794;-81
2023/12/23 06:01:52;;;;;;;5.07;1.27;;;12.40;71.00;;;;;;5035187;28;20032;-82
2023/12/23 06:04:18;;;;;;;5.38;1.42;;;12.40;70.90;;;;;;5033861;28;20034;-81
2023/12/23 06:06:44;;;;;;;5.63;1.80;;;12.40;71.00;;;;;;5035445;28;20025;-83
2023/12/23 06:09:10;;;;;;;4.30;1.58;;;12.40;71.00;;;;;;5021938;28;20136;-82
2023/12/23 06:11:36;;;;;;;8.13;1.70;;;12.40;71.00;;;;;;5032699;28;20033;-82
2023/12/23 06:14:02;;;;;;;5.20;1.60;;;12.40;71.00;;;;;;5053042;28;20041;-82
2023/12/23 06:16:28;;;;;;;7.63;2.00;;;12.40;70.90;;;;;;5037379;28;20467;-82
2023/12/23 06:18:55;;;;;;;7.35;1.40;;;12.40;71.00;;;;;;5042088;28;20040;-81
2023/12/23 06:21:21;;;;;;;5.50;1.75;;;12.40;70.90;;;;;;5035950;28;20299;-83
2023/12/23 06:23:48;;;;;;;7.68;1.55;;;12.40;70.90;;;;;;5041984;28;20059;-82
2023/12/23 06:26:14;;;;;;;6.80;1.60;;;12.40;70.80;;;;;;5032089;28;20531;-82
2023/12/23 06:28:40;;;;;;;8.02;2.25;;;12.40;70.80;;;;;;5035806;28;20097;-83
2023/12/23 06:31:06;;;;;;;9.40;2.38;;;12.40;70.80;;;;;;5018278;28;20044;-82
2023/12/23 06:33:33;;;;;;;5.10;1.58;;;12.40;70.80;;;;;;5050490;28;20144;-83
2023/12/23 06:35:59;;;;;;;6.82;1.50;;;12.40;70.80;;;;;;5038744;28;20043;-81
2023/12/23 06:38:26;;;;;;;4.97;1.33;;;12.40;70.80;;;;;;5032273;28;20033;-81
2023/12/23 06:40:52;;;;;;;8.77;1.60;;;12.40;70.80;;;;;;5038939;28;20111;-81
2023/12/23 06:43:18;;;;;;;8.18;2.17;;;12.40;70.80;;;;;;5053189;28;20032;-83
2023/12/23 06:45:44;;;;;;;6.55;1.20;;;12.40;70.80;;;;;;5030839;28;20055;-83
2023/12/23 06:48:10;;;;;;;9.82;2.05;;;12.40;70.90;;;;;;5037573;28;20041;-81
2023/12/23 06:50:36;;;;;;;5.50;1.13;;;12.40;70.90;;;;;;5006125;28;20060;-82
2023/12/23 06:53:02;;;;;;;5.80;1.50;;;12.40;70.90;;;;;;5031024;28;20029;-82
2023/12/23 06:55:28;;;;;;;4.53;1.48;;;12.40;70.90;;;;;;5040092;28;20055;-82
2023/12/23 06:57:55;;;;;;;2.45;1.05;;;12.40;70.90;;;;;;5034927;28;20516;-81
2023/12/23 07:00:21;;;;;;;6.75;2.70;;;12.40;70.90;;;;;;5033819;28;20437;-81
2023/12/23 07:02:49;;;;;;;7.07;1.52;;;12.40;70.90;;;;;;5035350;28;20025;-82
2023/12/23 07:05:14;;;;;;;5.78;1.30;;;12.40;70.90;;;;;;5033335;28;20105;-81
2023/12/23 07:07:41;;;;;;;6.95;1.65;;;12.40;70.80;;;;;;5037748;28;20519;-81
2023/12/23 07:10:08;;;;;;;5.05;1.20;;;12.40;70.80;;;;;;5037118;28;20049;-83
2023/12/23 07:12:35;;;;;;;6.38;1.27;;;12.40;70.80;;;;;;5039086;28;20052;-81
2023/12/23 07:15:03;;;;;;;4.13;1.30;;;12.40;70.80;;;;;;5035639;28;20271;-81
2023/12/23 07:17:28;;;;;;;5.65;1.25;;;12.40;70.80;;;;;;5039036;28;20033;-82
2023/12/23 07:19:54;;;;;;;6.60;1.58;;;12.40;70.80;;;;;;5029110;28;20040;-81
2023/12/23 07:22:21;;;;;;;9.15;1.75;;;12.40;70.80;;;;;;5031190;28;20388;-83
2023/12/23 07:24:47;;;;;;;5.00;1.95;;;12.30;70.60;;;;;;5032573;28;20510;-82
2023/12/23 07:27:13;;;;;;;9.63;2.30;;;12.30;70.50;;;;;;5025357;28;20028;-83
2023/12/23 07:29:39;;;;;;;4.97;1.08;;;12.30;70.60;;;;;;5026217;28;20121;-82
2023/12/23 07:32:07;;;;;;;8.32;1.65;;;12.30;70.50;;;;;;5033639;28;20394;-81
2023/12/23 07:34:32;;;;;;;7.03;1.42;;;12.30;70.50;;;;;;5031975;28;20067;-83
2023/12/23 07:37:02;;;;;;;8.07;1.48;;;12.30;70.50;;;;;;5029649;28;20041;-83
2023/12/23 07:39:28;;;;;;;8.85;1.45;;;12.30;70.50;;;;;;5022672;28;20509;-82
2023/12/23 07:41:55;;;;;;;6.28;1.50;;;12.30;70.40;;;;;;5036139;28;20029;-82
2023/12/23 07:44:23;;;;;;;4.60;1.20;;;12.30;70.40;;;;;;5035717;28;20035;-79
2023/12/23 07:46:50;;;;;;;6.53;1.73;;;12.30;70.40;;;;;;5037171;28;20036;-82
2023/12/23 07:49:16;;;;;;;5.28;1.02;;;12.20;70.30;;;;;;5031563;28;20429;-81
2023/12/23 07:51:42;;;;;;;5.25;1.25;;;12.20;70.50;;;;;;5029982;28;20450;-82
2023/12/23 07:54:08;;;;;;;4.68;1.30;;;12.30;70.40;;;;;;5031214;28;20306;-80
2023/12/23 07:56:34;;;;;;;4.82;1.30;;;12.20;70.20;;;;;;5029022;28;20029;-80
2023/12/23 07:59:00;;;;;;;6.88;1.20;;;12.20;70.30;;;;;;5023792;28;20511;-81
2023/12/23 08:01:26;;;;;;;6.97;1.20;;;12.20;70.20;;;;;;5042498;28;20459;-78
2023/12/23 08:03:52;;;;;;;5.07;1.50;;;12.20;70.20;;;;;;5023680;28;20095;-81
2023/12/23 08:06:18;;;;;;;6.40;1.77;;;12.20;70.20;;;;;;5041280;28;20559;-79
2023/12/23 08:08:45;;;;;;;5.57;1.30;;;12.20;70.20;;;;;;5017468;28;20030;-83
2023/12/23 08:11:11;;;;;;;8.05;1.50;;;12.20;70.20;;;;;;5032434;28;20111;-80
2023/12/23 08:13:37;;;;;;;5.18;1.05;;;12.30;70.50;;;;;;5032322;28;20131;-80
2023/12/23 08:16:03;;;;;;;5.70;1.20;;;12.30;70.70;;;;;;5033828;28;20480;-80
2023/12/23 08:18:30;;;;;;;4.80;0.88;;;12.30;70.80;;;;;;5033107;28;20444;-80
2023/12/23 08:20:56;;;;;;;34.35;8.15;;;12.40;71.10;;;;;;5033578;28;20087;-80
2023/12/23 08:23:22;;;;;;;26.75;6.07;;;12.40;71.10;;;;;;5037215;28;20041;-82
2023/12/23 08:25:48;;;;;;;21.13;5.22;;;12.40;71.10;;;;;;5048017;28;20460;-80
2023/12/23 08:28:14;;;;;;;37.00;9.63;;;12.40;71.10;;;;;;5032664;28;20136;-81
2023/12/23 08:30:40;;;;;;;27.38;6.90;;;12.40;71.10;;;;;;5049352;28;20043;-82
2023/12/23 08:33:06;;;;;;;26.92;6.72;;;12.50;71.80;;;;;;5051867;28;20025;-82
2023/12/23 08:35:33;;;;;;;25.08;6.13;;;12.50;71.40;;;;;;5030345;28;20331;-82
2023/12/23 08:38:00;;;;;;;21.48;6.25;;;12.50;71.40;;;;;;5031008;28;20039;-82
2023/12/23 08:40:26;;;;;;;23.58;5.45;;;12.50;71.40;;;;;;5029796;28;20021;-82
2023/12/23 08:42:52;;;;;;;18.75;5.15;;;12.50;71.40;;;;;;5033859;28;20489;-83
2023/12/23 08:45:18;;;;;;;21.60;4.28;;;12.60;71.60;;;;;;5026754;28;20036;-81
2023/12/23 08:47:44;;;;;;;15.90;4.45;;;12.60;71.60;;;;;;5024731;28;20033;-82
2023/12/23 08:50:10;;;;;;;13.43;5.10;;;12.60;71.60;;;;;;5031840;28;20073;-83
2023/12/23 08:52:36;;;;;;;11.18;3.15;;;12.60;71.50;;;;;;5035487;28;20032;-82
2023/12/23 08:55:03;;;;;;;18.35;4.18;;;12.60;71.40;;;;;;5035063;28;20033;-80
2023/12/23 08:57:33;;;;;;;17.08;3.88;;;12.60;71.40;;;;;;5035855;28;20582;-82
2023/12/23 09:00:00;;;;;;;13.05;4.93;;;12.70;71.60;;;;;;5034539;28;20053;-82
2023/12/23 09:02:26;;;;;;;9.88;3.55;;;12.70;71.50;;;;;;5038932;28;20104;-80
2023/12/23 09:04:52;;;;;;;8.52;2.40;;;12.70;71.40;;;;;;5057281;28;20222;-82
2023/12/23 09:07:18;;;;;;;11.35;2.85;;;12.70;71.30;;;;;;5065990;28;20027;-83
2023/12/23 09:09:45;;;;;;;8.57;2.50;;;12.70;71.30;;;;;;5057084;28;20048;-86
2023/12/23 09:12:11;;;;;;;9.73;3.22;;;12.70;71.30;;;;;;5058506;28;20013;-86
2023/12/23 09:14:38;;;;;;;13.65;3.13;;;12.80;71.50;;;;;;5066272;28;20040;-82
2023/12/23 09:17:06;;;;;;;15.75;3.30;;;12.90;71.70;;;;;;5060481;28;20108;-83
2023/12/23 09:19:36;;;;;;;9.30;2.33;;;13.00;71.80;;;;;;5084668;28;20093;-85
2023/12/23 09:22:02;;;;;;;11.77;2.70;;;13.10;71.80;;;;;;5043848;28;20488;-86
2023/12/23 09:24:29;;;;;;;10.93;2.10;;;13.30;71.80;;;;;;5027439;28;20030;-91
2023/12/23 09:26:55;;;;;;;9.18;2.45;;;13.40;71.60;;;;;;5047251;28;20400;-81
2023/12/23 09:29:22;;;;;;;6.32;3.13;;;13.60;71.40;;;;;;5042108;28;20041;-96
2023/12/23 09:31:48;;;;;;;8.25;2.55;;;13.70;71.10;;;;;;5043747;28;20064;-83
2023/12/23 09:34:14;;;;;;;6.22;1.55;;;13.80;70.90;;;;;;5039450;28;20485;-82
2023/12/23 09:36:39;;;;;;;13.25;3.00;;;13.90;70.70;;;;;;5050265;28;20024;-84
2023/12/23 09:39:05;;;;;;;8.50;1.85;;;14.00;70.60;;;;;;5032101;28;20107;-81
2023/12/23 09:41:32;;;;;;;6.72;2.13;;;14.10;70.50;;;;;;5034176;28;20033;-82
2023/12/23 09:43:58;;;;;;;5.93;1.58;;;14.10;70.30;;;;;;5019232;28;20055;-83
2023/12/23 09:46:25;;;;;;;6.55;1.45;;;14.10;70.10;;;;;;5020926;28;20300;-83
2023/12/23 09:48:51;;;;;;;4.03;1.42;;;14.10;70.00;;;;;;5059431;28;20087;-83
2023/12/23 09:51:22;;;;;;;5.65;1.80;;;14.10;69.80;;;;;;5041344;28;20045;-82
2023/12/23 09:53:49;;;;;;;5.90;1.40;;;14.10;69.70;;;;;;5036033;28;20164;-83
2023/12/23 09:56:15;;;;;;;3.88;1.60;;;14.10;69.60;;;;;;5030097;28;20068;-82
2023/12/23 09:58:44;;;;;;;6.05;1.38;;;14.10;69.60;;;;;;5031147;28;20404;-83
2023/12/23 10:01:10;;;;;;;4.75;1.30;;;14.10;69.40;;;;;;5046083;28;20083;-83
2023/12/23 10:03:36;;;;;;;4.20;1.10;;;14.10;69.30;;;;;;5044504;28;20373;-84
2023/12/23 10:06:02;;;;;;;4.78;1.23;;;14.10;69.30;;;;;;5042555;28;20593;-84
2023/12/23 10:08:29;;;;;;;4.60;1.10;;;14.10;69.30;;;;;;5034064;28;20036;-81
2023/12/23 10:10:56;;;;;;;4.68;1.38;;;14.10;69.20;;;;;;5034434;28;20382;-81
2023/12/23 10:13:22;;;;;;;6.72;1.30;;;14.10;69.10;;;;;;5035693;28;20475;-82
2023/12/23 10:15:48;;;;;;;3.22;0.98;;;14.10;69.00;;;;;;5030252;28;20029;-82
2023/12/23 10:18:14;;;;;;;5.32;1.05;;;14.10;68.90;;;;;;5028162;28;20022;-83
2023/12/23 10:20:43;;;;;;;5.57;1.50;;;14.10;68.90;;;;;;5034073;28;20284;-82
2023/12/23 10:23:09;;;;;;;5.85;1.20;;;14.10;68.80;;;;;;5035006;28;20084;-82
2023/12/23 10:25:35;;;;;;;5.22;1.55;;;14.20;68.90;;;;;;5033415;28;20068;-82
2023/12/23 10:28:04;;;;;;;4.97;1.13;;;14.20;68.70;;;;;;5031845;28;20136;-82
2023/12/23 10:30:34;;;;;;;8.40;1.30;;;14.20;68.60;;;;;;5012011;28;20398;-82
2023/12/23 10:33:06;;;;;;;8.10;1.70;;;14.20;68.50;;;;;;5029358;28;20033;-83
2023/12/23 10:35:41;;;;;;;6.78;1.45;;;14.20;68.30;;;;;;5048018;28;20320;-83
2023/12/23 10:38:09;;;;;;;3.63;1.00;;;14.20;68.30;;;;;;5016636;28;20044;-91
2023/12/23 10:40:35;;;;;;;3.42;0.93;;;14.20;68.20;;;;;;5041097;28;20142;-83
2023/12/23 10:43:03;;;;;;;6.68;1.52;;;14.20;68.10;;;;;;5040946;28;20025;-83
2023/12/23 10:45:31;;;;;;;3.90;1.00;;;14.30;68.20;;;;;;5021737;28;20041;-84
2023/12/23 10:48:01;;;;;;;5.03;1.08;;;14.30;68.10;;;;;;5044371;28;20134;-83
2023/12/23 10:50:28;;;;;;;5.35;1.05;;;14.30;68.50;;;;;;5041390;28;20114;-83
2023/12/23 10:52:57;;;;;;;4.88;1.40;;;14.30;67.90;;;;;;5040282;28;20422;-91
2023/12/23 10:55:27;;;;;;;3.38;1.27;;;14.30;67.80;;;;;;5039044;28;20155;-88
2023/12/23 10:57:55;;;;;;;9.05;2.35;;;14.40;68.00;;;;;;5021033;28;20032;-82
2023/12/23 11:00:21;;;;;;;3.92;0.90;;;14.40;68.00;;;;;;5026811;28;20029;-82
2023/12/23 11:02:52;;;;;;;4.15;1.15;;;14.50;68.00;;;;;;5046084;28;20060;-82
2023/12/23 11:05:19;;;;;;;10.75;2.50;;;14.50;67.80;;;;;;5028256;28;20093;-82
2023/12/23 11:07:47;;;;;;;6.00;1.10;;;14.60;68.00;;;;;;5037713;28;20143;-84
2023/12/23 11:10:16;;;;;;;8.13;1.42;;;14.60;67.90;;;;;;5031834;28;20098;-83
2023/12/23 11:12:43;;;;;;;8.50;1.35;;;14.60;67.80;;;;;;5019198;28;20410;-82
2023/12/23 11:15:09;;;;;;;5.22;1.27;;;14.60;67.80;;;;;;5037874;28;20384;-81
2023/12/23 11:17:42;;;;;;;5.03;1.05;;;14.60;67.80;;;;;;5043210;28;20147;-83
2023/12/23 11:20:28;;;;;;;;;;;14.50;67.70;;;;;;5029753;28;20025;-83
2023/12/23 11:22:55;;;;;;;5.68;1.90;;;14.50;67.80;;;;;;5033029;28;19963;-83
2023/12/23 11:25:41;;;;;;;4.05;1.17;;;14.50;68.20;;;;;;5023769;28;20450;-84
2023/12/23 11:28:12;;;;;;;4.63;1.15;;;14.50;67.80;;;;;;5033911;28;20208;-83
2023/12/23 11:30:47;;;;;;;5.93;1.20;;;14.50;67.90;;;;;;5005962;28;20047;-84
2023/12/23 11:33:14;;;;;;;6.57;1.00;;;14.50;68.00;;;;;;5037022;28;20029;-83
2023/12/23 11:36:00;;;;;;;2.60;1.10;;;14.50;68.00;;;;;;5037639;28;20037;-84
2023/12/23 11:38:46;;;;;;;4.32;0.90;;;14.60;68.10;;;;;;5028878;28;20430;-83
2023/12/23 11:41:13;;;;;;;7.78;1.40;;;14.60;68.10;;;;;;5039964;28;20227;-83
2023/12/23 11:43:45;;;;;;;3.92;1.10;;;14.60;68.10;;;;;;5033097;28;20079;-83
2023/12/23 11:46:12;;;;;;;8.10;1.25;;;14.60;68.10;;;;;;5035411;28;20082;-83
2023/12/23 11:48:38;;;;;;;7.05;1.58;;;14.60;68.10;;;;;;5034683;28;20417;-83
2023/12/23 11:51:08;;;;;;;4.05;1.05;;;14.60;68.10;;;;;;5046184;28;20120;-85
2023/12/23 11:53:37;;;;;;;5.03;1.42;;;14.60;68.10;;;;;;5033768;28;20026;-85
2023/12/23 11:56:05;;;;;;;4.78;1.23;;;14.60;68.10;;;;;;5028579;28;20346;-83
2023/12/23 11:58:32;;;;;;;3.28;1.00;;;14.60;68.10;;;;;;5039848;28;20060;-95
2023/12/23 12:00:59;;;;;;;7.53;1.10;;;14.70;68.20;;;;;;5070140;28;20051;-81
2023/12/23 12:03:27;;;;;;;10.75;2.22;;;14.70;68.10;;;;;;5024919;28;20223;-86
2023/12/23 12:06:02;;;;;;;6.00;1.30;;;14.80;68.20;;;;;;5036358;28;20032;-83
2023/12/23 12:08:28;;;;;;;5.05;1.10;;;14.80;68.00;;;;;;5043450;28;20450;-83
2023/12/23 12:10:58;;;;;;;7.50;1.42;;;14.80;67.90;;;;;;5028310;28;20375;-83
2023/12/23 12:13:28;;;;;;;4.38;1.25;;;14.80;67.80;;;;;;5033532;28;20040;-84
2023/12/23 12:15:54;;;;;;;8.10;2.47;;;14.80;67.80;;;;;;5033416;28;20171;-84
2023/12/23 12:18:20;;;;;;;7.25;1.38;;;14.80;67.70;;;;;;5038664;28;20119;-85
2023/12/23 12:20:46;;;;;;;4.90;0.95;;;14.80;67.70;;;;;;5041019;28;20611;-84
2023/12/23 12:23:13;;;;;;;5.07;1.38;;;14.80;67.60;;;;;;5043324;28;20056;-83
2023/12/23 12:25:46;;;;;;;4.03;1.25;;;14.80;67.60;;;;;;5044659;28;20519;-83
2023/12/23 12:28:13;;;;;;;4.72;1.70;;;14.80;67.50;;;;;;5029020;28;20049;-83
2023/12/23 12:30:39;;;;;;;5.25;1.55;;;14.80;67.50;;;;;;5056938;28;20043;-86
2023/12/23 12:33:05;;;;;;;8.00;2.35;;;14.90;67.60;;;;;;5052744;28;20026;-82
2023/12/23 12:35:31;;;;;;;9.55;3.38;;;14.90;67.50;;;;;;5033845;28;20056;-83
2023/12/23 12:37:57;;;;;;;12.10;4.45;;;14.90;67.50;;;;;;5069568;28;20449;-84
2023/12/23 12:40:23;;;;;;;17.83;5.50;;;14.90;67.60;;;;;;5057429;28;20044;-83
2023/12/23 12:42:51;;;;;;;18.50;5.60;;;14.90;67.70;;;;;;5053747;28;20033;-84
2023/12/23 12:45:17;;;;;;;29.45;8.82;;;14.90;67.80;;;;;;5050327;28;20033;-84